createdAt,value
2022-12-14T00:01:22.518Z,19.06
2022-12-14T00:03:50.078Z,19.03
2022-12-14T00:06:20.156Z,19.05
2022-12-14T00:08:49.018Z,19.04
2022-12-14T00:11:16.516Z,19.03
2022-12-14T00:13:44.908Z,19.03
2022-12-14T00:16:17.585Z,19.03
2022-12-14T00:18:45.222Z,19.04
2022-12-14T00:21:14.251Z,19.04
2022-12-14T00:23:45.594Z,19.03
2022-12-14T00:26:14.663Z,19.00
2022-12-14T00:28:42.287Z,19.01
2022-12-14T00:31:10.793Z,19.02
2022-12-14T00:33:38.398Z,19.01
2022-12-14T00:36:06.668Z,18.99
2022-12-14T00:38:34.101Z,19.03
2022-12-14T00:41:03.144Z,19.02
2022-12-14T00:43:30.584Z,18.98
2022-12-14T00:45:58.055Z,19.01
2022-12-14T00:48:26.035Z,19.04
2022-12-14T00:50:54.286Z,19.01
2022-12-14T00:53:21.668Z,19.03
2022-12-14T00:55:49.787Z,19.03
2022-12-14T00:58:19.592Z,18.99
2022-12-14T01:00:47.240Z,19.01
2022-12-14T01:03:15.023Z,19.04
2022-12-14T01:05:48.990Z,18.96
2022-12-14T01:08:16.731Z,18.88
2022-12-14T01:10:44.182Z,18.86
2022-12-14T01:13:11.721Z,18.87
2022-12-14T01:15:40.533Z,18.85
2022-12-14T01:18:07.975Z,18.83
2022-12-14T01:20:35.441Z,18.82
2022-12-14T01:23:03.024Z,18.84
2022-12-14T01:25:30.444Z,18.87
2022-12-14T01:27:57.838Z,19.00
2022-12-14T01:30:25.229Z,19.03
2022-12-14T01:32:53.913Z,19.01
2022-12-14T01:35:21.331Z,18.96
2022-12-14T01:37:49.016Z,19.00
2022-12-14T01:40:16.925Z,18.94
2022-12-14T01:42:44.350Z,18.97
2022-12-14T01:45:18.413Z,18.97
2022-12-14T01:47:48.255Z,18.97
2022-12-14T01:50:21.344Z,18.99
2022-12-14T01:52:49.153Z,18.98
2022-12-14T01:55:17.784Z,18.97
2022-12-14T01:57:48.129Z,18.96
2022-12-14T02:00:16.759Z,18.95
2022-12-14T02:02:46.944Z,18.97
2022-12-14T02:05:14.425Z,18.97
2022-12-14T02:07:43.231Z,18.94
2022-12-14T02:10:16.729Z,18.95
2022-12-14T02:12:46.308Z,18.96
2022-12-14T02:15:13.730Z,18.94
2022-12-14T02:17:42.390Z,18.90
2022-12-14T02:20:10.483Z,18.93
2022-12-14T02:23:00.244Z,18.92
2022-12-14T02:25:40.081Z,18.89
2022-12-14T02:28:30.810Z,18.88
2022-12-14T02:31:02.320Z,18.91
2022-12-14T02:33:36.283Z,18.88
2022-12-14T02:36:06.480Z,18.90
2022-12-14T02:38:42.799Z,18.91
2022-12-14T02:41:12.797Z,18.95
2022-12-14T02:43:45.665Z,18.92
2022-12-14T02:46:19.151Z,18.91
2022-12-14T02:48:48.976Z,18.91
2022-12-14T02:51:19.420Z,18.96
2022-12-14T02:53:48.605Z,18.95
2022-12-14T02:56:18.741Z,18.94
2022-12-14T02:58:48.806Z,18.92
2022-12-14T03:01:18.672Z,18.92
2022-12-14T03:03:46.185Z,18.93
2022-12-14T03:06:26.045Z,18.91
2022-12-14T03:08:55.374Z,18.90
2022-12-14T03:11:24.637Z,18.88
2022-12-14T03:13:53.789Z,18.91
2022-12-14T03:16:24.612Z,18.89
2022-12-14T03:18:53.021Z,18.80
2022-12-14T03:21:22.583Z,18.76
2022-12-14T03:23:50.666Z,18.74
2022-12-14T03:26:19.320Z,18.71
2022-12-14T03:28:48.109Z,18.72
2022-12-14T03:31:16.956Z,18.71
2022-12-14T03:33:45.853Z,18.71
2022-12-14T03:36:15.238Z,18.71
2022-12-14T03:38:43.719Z,18.67
2022-12-14T03:41:16.308Z,18.66
2022-12-14T03:43:50.366Z,18.67
2022-12-14T03:46:19.715Z,18.67
2022-12-14T03:48:49.462Z,18.66
2022-12-14T03:51:21.027Z,18.66
2022-12-14T03:53:50.353Z,18.64
2022-12-14T03:56:19.735Z,18.62
2022-12-14T03:58:56.780Z,18.64
2022-12-14T04:01:28.670Z,18.60
2022-12-14T04:03:58.775Z,18.61
2022-12-14T04:06:30.155Z,18.65
2022-12-14T04:09:05.068Z,18.75
2022-12-14T04:11:53.313Z,18.78
2022-12-14T04:14:40.067Z,18.78
2022-12-14T04:17:27.941Z,18.79
2022-12-14T04:19:57.721Z,18.79
2022-12-14T04:22:26.504Z,18.77
2022-12-14T04:25:13.074Z,18.80
2022-12-14T04:27:41.944Z,18.78
2022-12-14T04:30:09.746Z,18.80
2022-12-14T04:32:38.012Z,18.80
2022-12-14T04:35:10.414Z,18.80
2022-12-14T04:37:38.192Z,18.79
2022-12-14T04:40:07.110Z,18.83
2022-12-14T04:42:36.622Z,18.79
2022-12-14T04:45:06.375Z,18.80
2022-12-14T04:47:35.983Z,18.78
2022-12-14T04:50:04.606Z,18.80
2022-12-14T04:52:34.419Z,18.77
2022-12-14T04:55:04.262Z,18.77
2022-12-14T04:57:35.040Z,18.78
2022-12-14T05:00:02.440Z,18.81
2022-12-14T05:02:33.826Z,18.80
2022-12-14T05:05:04.636Z,18.80
2022-12-14T05:07:38.188Z,18.78
2022-12-14T05:10:07.152Z,18.83
2022-12-14T05:12:37.468Z,18.82
2022-12-14T05:15:06.764Z,18.85
2022-12-14T05:17:36.146Z,18.81
2022-12-14T05:20:03.545Z,18.80
2022-12-14T05:22:30.986Z,18.79
2022-12-14T05:24:59.670Z,18.79
2022-12-14T05:27:27.074Z,18.80
2022-12-14T05:29:54.469Z,18.77
2022-12-14T05:32:21.864Z,18.79
2022-12-14T05:34:49.251Z,18.75
2022-12-14T05:37:18.531Z,18.78
2022-12-14T05:39:46.075Z,18.79
2022-12-14T05:42:14.764Z,18.81
2022-12-14T05:44:42.179Z,18.80
2022-12-14T05:47:10.612Z,18.79
2022-12-14T05:49:38.055Z,18.84
2022-12-14T05:52:05.870Z,18.79
2022-12-14T05:54:33.263Z,18.80
2022-12-14T05:57:00.649Z,18.80
2022-12-14T05:59:29.350Z,18.78
2022-12-14T06:01:56.833Z,18.82
2022-12-14T06:04:24.270Z,18.78
2022-12-14T06:06:51.711Z,18.71
2022-12-14T06:09:19.152Z,18.70
2022-12-14T06:11:46.869Z,18.68
2022-12-14T06:14:14.343Z,18.65
2022-12-14T06:16:43.569Z,18.65
2022-12-14T06:19:11.379Z,18.62
2022-12-14T06:21:39.497Z,18.62
2022-12-14T06:24:07.450Z,18.62
2022-12-14T06:26:36.660Z,18.62
2022-12-14T06:29:04.358Z,18.60
2022-12-14T06:31:32.451Z,18.60
2022-12-14T06:34:02.433Z,18.61
2022-12-14T06:36:30.741Z,18.60
2022-12-14T06:38:58.761Z,18.73
2022-12-14T06:41:26.239Z,18.84
2022-12-14T06:43:53.677Z,18.86
2022-12-14T06:46:22.593Z,18.83
2022-12-14T06:48:50.489Z,18.68
2022-12-14T06:51:19.358Z,18.63
2022-12-14T06:53:47.226Z,18.57
2022-12-14T06:56:15.398Z,18.54
2022-12-14T06:58:42.812Z,18.55
2022-12-14T07:01:11.036Z,18.70
2022-12-14T07:03:41.297Z,18.77
2022-12-14T07:06:08.927Z,18.78
2022-12-14T07:08:38.194Z,18.79
2022-12-14T07:11:06.571Z,18.81
2022-12-14T07:13:33.989Z,18.79
2022-12-14T07:16:01.446Z,18.77
2022-12-14T07:18:28.997Z,18.67
2022-12-14T07:20:57.702Z,18.64
2022-12-14T07:23:28.066Z,18.60
2022-12-14T07:26:03.679Z,18.58
2022-12-14T07:28:31.073Z,18.55
2022-12-14T07:30:59.002Z,18.52
2022-12-14T07:33:27.052Z,18.49
2022-12-14T07:36:02.243Z,18.50
2022-12-14T07:38:29.646Z,18.50
2022-12-14T07:41:04.293Z,18.48
2022-12-14T07:43:31.678Z,18.48
2022-12-14T07:46:01.640Z,18.46
2022-12-14T07:48:29.096Z,18.47
2022-12-14T07:50:56.519Z,18.46
2022-12-14T07:53:23.953Z,18.46
2022-12-14T07:55:51.429Z,18.46
2022-12-14T07:58:20.127Z,18.45
2022-12-14T08:00:48.318Z,18.46
2022-12-14T08:03:15.927Z,18.46
2022-12-14T08:05:43.319Z,18.49
2022-12-14T08:08:11.057Z,18.48
2022-12-14T08:10:40.472Z,18.46
2022-12-14T08:13:08.110Z,18.46
2022-12-14T08:15:39.314Z,18.45
2022-12-14T08:18:06.826Z,18.46
2022-12-14T08:20:35.181Z,18.46
2022-12-14T08:23:02.612Z,18.48
2022-12-14T08:25:29.999Z,18.47
2022-12-14T08:27:57.587Z,18.47
2022-12-14T08:30:25.099Z,18.49
2022-12-14T08:32:53.939Z,18.48
2022-12-14T08:35:21.327Z,18.49
2022-12-14T08:37:48.735Z,18.49
2022-12-14T08:40:16.141Z,18.51
2022-12-14T08:42:43.594Z,18.53
2022-12-14T08:45:11.847Z,18.45
2022-12-14T08:47:39.256Z,18.44
2022-12-14T08:50:08.980Z,18.40
2022-12-14T08:52:36.384Z,18.41
2022-12-14T08:55:03.808Z,18.40
2022-12-14T08:57:31.220Z,18.35
2022-12-14T09:00:01.743Z,18.36
2022-12-14T09:02:29.796Z,18.33
2022-12-14T09:04:57.289Z,18.36
2022-12-14T09:07:26.002Z,18.33
2022-12-14T09:09:53.422Z,18.32
2022-12-14T09:12:20.815Z,18.32
2022-12-14T09:14:49.526Z,18.35
2022-12-14T09:17:17.070Z,18.33
2022-12-14T09:19:44.541Z,18.29
2022-12-14T09:22:13.292Z,18.30
2022-12-14T09:24:42.037Z,18.29
2022-12-14T09:27:09.673Z,18.30
2022-12-14T09:29:37.069Z,18.30
2022-12-14T09:32:04.728Z,18.29
2022-12-14T09:34:32.166Z,18.26
2022-12-14T09:37:04.428Z,18.28
2022-12-14T09:39:31.983Z,18.41
2022-12-14T09:42:08.603Z,18.48
2022-12-14T09:44:47.151Z,18.52
2022-12-14T09:47:16.433Z,18.53
2022-12-14T09:49:46.417Z,18.56
2022-12-14T09:52:16.116Z,18.55
2022-12-14T09:54:43.941Z,18.54
2022-12-14T09:57:14.861Z,18.53
2022-12-14T09:59:42.270Z,18.51
2022-12-14T10:02:31.784Z,18.56
2022-12-14T10:05:07.757Z,18.50
2022-12-14T10:07:37.266Z,18.50
2022-12-14T10:10:05.904Z,18.52
2022-12-14T10:12:44.271Z,18.50
2022-12-14T10:15:18.795Z,18.51
2022-12-14T10:18:00.090Z,18.55
2022-12-14T10:20:31.945Z,18.52
2022-12-14T10:22:59.338Z,18.55
2022-12-14T10:25:27.432Z,18.56
2022-12-14T10:28:13.140Z,18.56
2022-12-14T10:30:41.799Z,18.59
2022-12-14T10:33:13.550Z,18.55
2022-12-14T10:35:44.453Z,18.55
2022-12-14T10:38:14.240Z,18.59
2022-12-14T10:40:44.504Z,18.60
2022-12-14T10:43:35.880Z,18.59
2022-12-14T10:46:13.418Z,18.58
2022-12-14T10:48:46.087Z,18.61
2022-12-14T10:51:15.196Z,18.59
2022-12-14T10:53:45.319Z,18.60
2022-12-14T10:56:15.939Z,18.58
2022-12-14T10:58:44.736Z,18.59
2022-12-14T11:01:13.906Z,18.61
2022-12-14T11:03:42.142Z,18.59
2022-12-14T11:06:13.563Z,18.62
2022-12-14T11:08:43.504Z,18.65
2022-12-14T11:11:19.242Z,18.64
2022-12-14T11:13:52.467Z,18.65
2022-12-14T11:16:33.750Z,18.62
2022-12-14T11:19:04.410Z,18.68
2022-12-14T11:21:33.267Z,18.67
2022-12-14T11:24:01.351Z,18.65
2022-12-14T11:26:31.788Z,18.69
2022-12-14T11:29:01.258Z,18.68
2022-12-14T11:31:31.819Z,18.70
2022-12-14T11:33:59.695Z,18.71
2022-12-14T11:36:28.125Z,18.70
2022-12-14T11:38:56.420Z,18.69
2022-12-14T11:41:23.798Z,18.72
2022-12-14T11:44:06.116Z,18.71
2022-12-14T11:46:46.178Z,18.72
2022-12-14T11:49:21.082Z,18.72
2022-12-14T11:52:01.979Z,18.76
2022-12-14T11:54:29.765Z,18.74
2022-12-14T11:56:59.193Z,18.76
2022-12-14T11:59:29.928Z,18.74
2022-12-14T12:01:57.738Z,18.77
2022-12-14T12:04:25.218Z,18.76
2022-12-14T12:06:53.043Z,18.77
2022-12-14T12:09:26.479Z,18.74
2022-12-14T12:11:54.041Z,18.75
2022-12-14T12:14:27.732Z,18.74
2022-12-14T12:16:57.706Z,18.76
2022-12-14T12:19:25.994Z,18.77
2022-12-14T12:21:53.398Z,18.76
2022-12-14T12:24:22.560Z,18.76
2022-12-14T12:26:51.372Z,18.73
2022-12-14T12:29:22.965Z,18.78
2022-12-14T12:31:53.301Z,18.76
2022-12-14T12:34:23.927Z,18.76
2022-12-14T12:37:24.592Z,18.73
2022-12-14T12:39:39.560Z,18.75
2022-12-14T12:42:24.188Z,18.73
2022-12-14T12:44:53.383Z,18.74
2022-12-14T12:47:29.892Z,18.72
2022-12-14T12:50:06.264Z,18.74
2022-12-14T12:52:35.233Z,18.75
2022-12-14T12:55:03.917Z,18.74
2022-12-14T12:57:33.706Z,18.76
2022-12-14T13:00:01.132Z,18.76
2022-12-14T13:02:31.163Z,18.72
2022-12-14T13:05:16.275Z,18.74
2022-12-14T13:07:49.393Z,18.73
2022-12-14T13:10:19.786Z,18.72
2022-12-14T13:12:48.562Z,18.74
2022-12-14T13:15:19.081Z,18.72
2022-12-14T13:17:49.294Z,18.74
2022-12-14T13:20:20.269Z,18.72
2022-12-14T13:22:49.625Z,18.75
2022-12-14T13:25:19.221Z,18.72
2022-12-14T13:27:58.323Z,18.71
2022-12-14T13:30:32.195Z,18.74
2022-12-14T13:33:13.994Z,18.73
2022-12-14T13:35:49.392Z,18.73
2022-12-14T13:38:33.564Z,18.73
2022-12-14T13:41:20.160Z,18.76
2022-12-14T13:43:58.324Z,18.73
2022-12-14T13:46:26.647Z,18.74
2022-12-14T13:48:55.393Z,18.72
2022-12-14T13:51:28.197Z,18.73
2022-12-14T13:53:58.976Z,18.74
2022-12-14T13:56:33.327Z,18.78
2022-12-14T13:59:01.216Z,18.73
2022-12-14T14:01:59.459Z,18.76
2022-12-14T14:04:28.010Z,18.73
2022-12-14T14:06:55.603Z,18.74
2022-12-14T14:09:50.154Z,18.74
2022-12-14T14:12:38.406Z,18.74
2022-12-14T14:15:31.487Z,18.71
2022-12-14T14:18:05.310Z,18.77
2022-12-14T14:20:37.237Z,18.74
2022-12-14T14:23:27.520Z,18.74
2022-12-14T14:26:20.258Z,18.80
2022-12-14T14:29:04.645Z,18.77
2022-12-14T14:31:45.362Z,18.76
2022-12-14T14:34:21.736Z,18.70
2022-12-14T14:36:49.500Z,18.74
2022-12-14T14:40:00.683Z,18.73
2022-12-14T14:42:31.719Z,18.76
2022-12-14T14:44:59.711Z,18.74
2022-12-14T14:47:29.367Z,18.71
2022-12-14T14:49:58.763Z,18.76
2022-12-14T14:52:45.469Z,18.77
2022-12-14T14:55:53.346Z,18.74
2022-12-14T14:58:25.062Z,18.72
2022-12-14T15:00:54.587Z,18.73
2022-12-14T15:03:24.148Z,18.73
2022-12-14T15:05:51.641Z,18.76
2022-12-14T15:08:20.319Z,18.73
2022-12-14T15:10:47.739Z,18.73
2022-12-14T15:13:18.021Z,18.73
2022-12-14T15:15:47.234Z,18.73
2022-12-14T15:18:15.704Z,18.74
2022-12-14T15:20:53.870Z,18.75
2022-12-14T15:23:21.290Z,18.76
2022-12-14T15:25:56.301Z,18.79
2022-12-14T15:28:24.052Z,18.74
2022-12-14T15:30:54.916Z,18.74
2022-12-14T15:33:25.009Z,18.73
2022-12-14T15:35:52.419Z,18.73
2022-12-14T15:38:23.248Z,18.74
2022-12-14T15:40:54.821Z,18.73
2022-12-14T15:43:23.520Z,18.73
2022-12-14T15:45:54.123Z,18.74
2022-12-14T15:48:23.107Z,18.70
2022-12-14T15:50:50.892Z,18.73
2022-12-14T15:53:19.810Z,18.73
2022-12-14T15:55:52.369Z,18.71
2022-12-14T15:58:25.454Z,18.70
2022-12-14T16:00:54.234Z,18.70
2022-12-14T16:03:27.327Z,18.71
2022-12-14T16:05:54.943Z,18.75
2022-12-14T16:08:22.549Z,18.73
2022-12-14T16:10:50.564Z,18.71
2022-12-14T16:13:20.789Z,18.70
2022-12-14T16:15:49.343Z,18.69
2022-12-14T16:18:18.607Z,18.71
2022-12-14T16:20:47.096Z,18.72
2022-12-14T16:23:27.717Z,18.70
2022-12-14T16:25:58.040Z,18.72
2022-12-14T16:28:28.380Z,18.69
2022-12-14T16:30:57.276Z,18.71
2022-12-14T16:33:26.116Z,18.68
2022-12-14T16:36:01.623Z,18.70
2022-12-14T16:38:29.025Z,18.67
2022-12-14T16:40:57.582Z,18.66
2022-12-14T16:43:28.639Z,18.67
2022-12-14T16:46:13.545Z,18.69
2022-12-14T16:49:04.514Z,18.72
2022-12-14T16:51:58.746Z,18.72
2022-12-14T16:54:23.507Z,18.69
2022-12-14T16:56:50.900Z,18.69
2022-12-14T16:59:21.137Z,18.68
2022-12-14T17:01:49.946Z,18.71
2022-12-14T17:04:20.846Z,18.69
2022-12-14T17:06:49.389Z,18.68
2022-12-14T17:09:20.296Z,18.69
2022-12-14T17:11:48.006Z,18.68
2022-12-14T17:14:15.700Z,18.67
2022-12-14T17:16:43.229Z,18.68
2022-12-14T17:19:14.298Z,18.63
2022-12-14T17:21:46.307Z,18.69
2022-12-14T17:24:15.530Z,18.68
2022-12-14T17:26:42.909Z,18.67
2022-12-14T17:29:17.458Z,18.66
2022-12-14T17:31:49.758Z,18.67
2022-12-14T17:34:17.876Z,18.66
2022-12-14T17:36:46.669Z,18.67
2022-12-14T17:39:14.075Z,18.67
2022-12-14T17:41:42.715Z,18.68
2022-12-14T17:44:13.828Z,18.68
2022-12-14T17:46:41.339Z,18.68
2022-12-14T17:49:08.988Z,18.68
2022-12-14T17:51:40.981Z,18.69
2022-12-14T17:54:13.062Z,18.69
2022-12-14T17:56:40.474Z,18.66
2022-12-14T17:59:07.874Z,18.64
2022-12-14T18:01:35.408Z,18.67
2022-12-14T18:04:02.920Z,18.64
2022-12-14T18:06:30.425Z,18.67
2022-12-14T18:08:57.847Z,18.65
2022-12-14T18:11:27.766Z,18.64
2022-12-14T18:13:55.180Z,18.63
2022-12-14T18:16:23.614Z,18.65
2022-12-14T18:18:51.238Z,18.66
2022-12-14T18:21:19.570Z,18.66
2022-12-14T18:23:47.168Z,18.65
2022-12-14T18:26:20.607Z,18.66
2022-12-14T18:28:49.310Z,18.63
2022-12-14T18:31:21.485Z,18.65
2022-12-14T18:33:48.937Z,18.68
2022-12-14T18:36:16.424Z,18.65
2022-12-14T18:38:43.850Z,18.57
2022-12-14T18:41:17.583Z,18.48
2022-12-14T18:43:45.090Z,18.48
2022-12-14T18:46:13.921Z,18.39
2022-12-14T18:48:41.661Z,18.37
2022-12-14T18:51:11.865Z,18.36
2022-12-14T18:53:42.068Z,18.43
2022-12-14T18:56:10.257Z,18.44
2022-12-14T18:58:37.916Z,18.41
2022-12-14T19:01:05.477Z,18.40
2022-12-14T19:03:35.309Z,18.37
2022-12-14T19:06:26.705Z,18.45
2022-12-14T19:08:51.478Z,18.52
2022-12-14T19:11:21.445Z,18.56
2022-12-14T19:13:48.846Z,18.56
2022-12-14T19:16:16.607Z,18.57
2022-12-14T19:18:45.339Z,18.60
2022-12-14T19:21:12.748Z,18.61
2022-12-14T19:23:40.142Z,18.65
2022-12-14T19:26:07.557Z,18.65
2022-12-14T19:28:35.092Z,18.65
2022-12-14T19:31:02.547Z,18.60
2022-12-14T19:33:30.388Z,18.52
2022-12-14T19:36:00.146Z,18.63
2022-12-14T19:38:28.341Z,18.61
2022-12-14T19:41:00.495Z,18.66
2022-12-14T19:43:29.178Z,18.65
2022-12-14T19:45:56.807Z,18.67
2022-12-14T19:48:24.238Z,18.61
2022-12-14T19:50:51.670Z,18.60
2022-12-14T19:53:27.545Z,18.60
2022-12-14T19:55:54.994Z,18.58
2022-12-14T19:58:24.791Z,18.61
2022-12-14T20:00:52.276Z,18.64
2022-12-14T20:03:19.976Z,18.65
2022-12-14T20:05:52.246Z,18.66
2022-12-14T20:08:20.965Z,18.66
2022-12-14T20:10:48.381Z,18.65
2022-12-14T20:13:15.800Z,18.60
2022-12-14T20:15:48.845Z,18.62
2022-12-14T20:18:16.311Z,18.62
2022-12-14T20:20:43.838Z,18.57
2022-12-14T20:23:17.251Z,18.48
2022-12-14T20:25:45.952Z,18.43
2022-12-14T20:28:13.354Z,18.40
2022-12-14T20:30:43.211Z,18.37
2022-12-14T20:33:10.794Z,18.38
2022-12-14T20:35:38.190Z,18.40
2022-12-14T20:38:05.606Z,18.36
2022-12-14T20:40:38.010Z,18.34
2022-12-14T20:43:07.848Z,18.34
2022-12-14T20:45:38.189Z,18.33
2022-12-14T20:48:06.428Z,18.34
2022-12-14T20:50:33.846Z,18.34
2022-12-14T20:53:01.259Z,18.32
2022-12-14T20:55:28.974Z,18.31
2022-12-14T20:57:56.353Z,18.28
2022-12-14T21:00:25.069Z,18.29
2022-12-14T21:02:52.707Z,18.31
2022-12-14T21:05:20.260Z,18.29
2022-12-14T21:07:47.879Z,18.30
2022-12-14T21:10:15.353Z,18.26
2022-12-14T21:12:41.828Z,18.30
2022-12-14T21:15:09.531Z,18.24
2022-12-14T21:17:39.062Z,18.27
2022-12-14T21:20:07.262Z,18.26
2022-12-14T21:22:35.278Z,18.22
2022-12-14T21:25:04.641Z,18.24
2022-12-14T21:27:32.633Z,18.25
2022-12-14T21:30:00.407Z,18.21
2022-12-14T21:32:27.923Z,18.24
2022-12-14T21:34:56.632Z,18.22
2022-12-14T21:37:24.166Z,18.23
2022-12-14T21:39:54.159Z,18.22
2022-12-14T21:42:22.144Z,18.20
2022-12-14T21:44:50.329Z,18.22
2022-12-14T21:47:19.195Z,18.22
2022-12-14T21:49:46.751Z,18.24
2022-12-14T21:52:17.338Z,18.23
2022-12-14T21:54:44.777Z,18.22
2022-12-14T21:57:31.975Z,18.21
2022-12-14T21:59:59.411Z,18.20
2022-12-14T22:02:27.025Z,18.16
2022-12-14T22:04:56.233Z,18.15
2022-12-14T22:07:26.572Z,18.22
2022-12-14T22:09:53.965Z,18.17
2022-12-14T22:12:21.425Z,18.17
2022-12-14T22:14:49.258Z,18.20
2022-12-14T22:17:16.752Z,18.16
2022-12-14T22:19:44.153Z,18.25
2022-12-14T22:22:13.591Z,18.38
2022-12-14T22:24:42.368Z,18.38
2022-12-14T22:27:09.962Z,18.33
2022-12-14T22:29:37.387Z,18.25
2022-12-14T22:32:05.121Z,18.22
2022-12-14T22:34:32.600Z,18.21
2022-12-14T22:36:59.998Z,18.17
2022-12-14T22:39:27.426Z,18.22
2022-12-14T22:41:56.489Z,18.19
2022-12-14T22:44:23.885Z,18.17
2022-12-14T22:46:51.335Z,18.16
2022-12-14T22:49:19.598Z,18.18
2022-12-14T22:51:47.002Z,18.19
2022-12-14T22:54:16.968Z,18.17
2022-12-14T22:56:45.067Z,18.18
2022-12-14T22:59:15.554Z,18.19
2022-12-14T23:01:43.064Z,18.18
2022-12-14T23:04:17.210Z,18.16
2022-12-14T23:06:44.783Z,18.16
2022-12-14T23:09:29.842Z,18.17
2022-12-14T23:12:19.678Z,18.16
2022-12-14T23:15:07.965Z,18.17
2022-12-14T23:17:52.793Z,18.17
2022-12-14T23:20:37.999Z,18.13
2022-12-14T23:23:23.922Z,18.31
2022-12-14T23:26:09.270Z,18.38
2022-12-14T23:28:54.075Z,18.41
2022-12-14T23:31:40.623Z,18.31
2022-12-14T23:34:25.379Z,18.38
2022-12-14T23:37:13.814Z,18.43
2022-12-14T23:40:01.481Z,18.45
2022-12-14T23:42:46.856Z,18.44
2022-12-14T23:45:32.177Z,18.45
2022-12-14T23:48:18.767Z,18.46
2022-12-14T23:51:03.565Z,18.47
2022-12-14T23:53:49.841Z,18.50
2022-12-14T23:56:35.318Z,18.51
2022-12-14T23:59:22.747Z,18.53
